Pagina principale
METAR-TAF:

METAR-TAF

Aeroporti :

Aeroporto di Stoccarda

Stoccarda, Germania

latitudine: 48-41N, longitudine: 009-13E, altezza: 396 m

Osservazione

Il bollettino è stato emesso 20 minuti fa, alle 12:50 UTC
Vento 1 kt da est
Temperature 7°C
Umidità 70%
Pressione 1022 hPa
Visibilità 10 km o più
nessuna nube inferiore a 1500 m e nessun cumulonembo

METAR: EDDS 181250Z 09001KT CAVOK 07/02 Q1022 NOSIG

Ora: 14:10 (13:10 UTC)

Previsione

Il bollettino è stato emesso 2 ore e 10 minuti fa, alle 11:00 UTC
Previsione valida dal 18 alle 12 UTC al 19 alle 12 UTC
Vento 3 kt da direzioni variabili
Visibilità 10 km o più
nessuna nube inferiore a 1500 m e nessun cumulonembo

TAF: EDDS 181100Z 1812/1912 VRB03KT CAVOK

Osservazioni e previsioni meteorologiche di più di 4000 aeroporti (messaggi METAR e TAF).

Le stazioni disponibili sono rappresentate dai dischi gialli e rossi sulla carta.

Puntare il mouse per vedere il nome della stazione.

Clicca sopra per visualizzare le osservazioni e previsioni meteorologiche.

Per cambiare la mappa : fare clic sui pulsanti verdi con una croce nera per ingrandire, il pulsante verde con un trattino per diminuire, o sulla freccia verde per le mappe adiacenti.


METAR-TAF: